Merino, CO (80741)

3:11 AM MDT on August 22, 2014 (GMT -0600)
Sterling Municipal | Change Station
CLOSE
Current Station
Airport
Location: Sterling Muni, Sterling, CO,
Elevation: 4039 ft
Nearby Weather Stations

Elev 4039 ft 40.62 °N, 103.26 °W | Updated 21 minutes ago

Rain
Rain
68 °F
Feels Like 68 °F
N
4
Wind Variable Wind from NNE

Today
High -- | Low -- °F
--% Chance of Precip.
Yesterday
High -- | Low -- °F
Precip. -- in
6:11 AM 7:41 PM
Waning Crescent, 9% visible
Pressure 30.06 in
Visibility 10.0 miles
Clouds Scattered Clouds 6000 ft
Mostly Cloudy 10000 ft
Overcast 12000 ft
Dew Point 61 °F
Humidity 78%
Rainfall 0.02 in
Snow Depth Not available.
UV 0 out of 12
Pollen 10.30 out of 12
Air Quality Not available.
Flu Activity Not available.
METAR KSTK 220850Z AUTO 02003KT 10SM RA SCT060 BKN100 OVC120 20/16 A3006 RMK AO2

More Conditions Fewer Conditions

Pressure 30.06 in
Visibility 10.0 miles
Clouds Scattered Clouds 6000 ft
Mostly Cloudy 10000 ft
Overcast 12000 ft
Dew Point 61 °F
Humidity 78%
Rainfall 0.02 in
Snow Depth Not available.
UV 0 out of 12
Pollen 10.30 out of 12
Air Quality Not available.
Flu Activity Not available.
METAR KSTK 220850Z AUTO 02003KT 10SM RA SCT060 BKN100 OVC120 20/16 A3006 RMK AO2

More Conditions Fewer Conditions

Nowcast | as of 2:31 am MDT on August 22, 2014

Showers and thunderstorms will continue over the plains of northeast Colorado through 4 am. Heavy rain and gusty winds to 35 mph will occur with the stronger storms.

×

10-Day Weather Forecast

Almanac

Astronomy

Aug. 22, 2014 Rise Set
Actual Time 6:11 AM MDT 7:41 PM MDT
Civil Twilight 5:42 AM MDT 8:09 PM MDT
Nautical Twilight 5:07 AM MDT 8:44 PM MDT
Astronomical Twilight 4:31 AM MDT 9:20 PM MDT
Moon 3:35 AM MDT 5:51 PM MDT
Length of Visible Light 14h 27m
Length of Day
13h 29m
Tomorrow will be 2m 29s shorter.
Waning Crescent, 9% of the Moon is Illuminated
Today
Waning Crescent
Aug 25
New
Sep 2
First Quarter
Sep 8
Full
Sep 15
Last Quarter

Today's Extremes

State Highs State Lows

Community

WunderPhotos

Upload Photos

1,746,146 photos uploaded!

Nearby

Snow Depth

Station Depth Elevation
Copeland Lake 0 in 8600 ft
Wild Basin 0 in 9560 ft
Niwot 0 in 9910 ft
University Camp 0 in 10300 ft
Willow Park 0 in 10700 ft

Earthquake Activity

City Distance Mag. Time & Date
No recent earthquake activity has been reported nearby.
Minimum magnitude displayed is 2.5.

Coastal Water Temperatures

Place Temperature
No Stations Reporting

Nearby Weather Stations